createdAt,value
2019-03-27T00:00:14.561Z,0
2019-03-27T00:00:40.661Z,0
2019-03-27T00:01:06.771Z,0
2019-03-27T00:01:32.876Z,0
2019-03-27T00:01:59.012Z,0
2019-03-27T00:02:25.127Z,0
2019-03-27T00:02:51.290Z,0
2019-03-27T00:03:17.399Z,0
2019-03-27T00:03:43.506Z,0
2019-03-27T00:04:09.610Z,0
2019-03-27T00:04:35.748Z,0
2019-03-27T00:05:01.927Z,0
2019-03-27T00:05:28.059Z,0
2019-03-27T00:05:54.164Z,0
2019-03-27T00:06:20.273Z,0
2019-03-27T00:06:46.379Z,0
2019-03-27T00:07:12.514Z,0
2019-03-27T00:07:38.656Z,0
2019-03-27T00:08:04.817Z,0
2019-03-27T00:08:30.944Z,0
2019-03-27T00:08:57.058Z,0
2019-03-27T00:09:23.163Z,0
2019-03-27T00:09:49.271Z,0
2019-03-27T00:10:15.375Z,0
2019-03-27T00:10:41.610Z,0
2019-03-27T00:11:07.714Z,0
2019-03-27T00:11:34.817Z,0
2019-03-27T00:12:00.925Z,0
2019-03-27T00:12:27.033Z,0
2019-03-27T00:12:53.168Z,0
2019-03-27T00:13:19.276Z,0
2019-03-27T00:13:45.386Z,0
2019-03-27T00:14:11.519Z,0
2019-03-27T00:14:37.620Z,0
2019-03-27T00:15:12.459Z,0
2019-03-27T00:15:31.834Z,0
2019-03-27T00:15:57.950Z,0
2019-03-27T00:16:24.061Z,0
2019-03-27T00:16:50.183Z,0
2019-03-27T00:17:16.287Z,0
2019-03-27T00:17:42.400Z,0
2019-03-27T00:18:08.508Z,0
2019-03-27T00:18:34.612Z,0
2019-03-27T00:19:00.746Z,0
2019-03-27T00:19:26.855Z,0
2019-03-27T00:19:52.958Z,0
2019-03-27T00:20:19.063Z,0
2019-03-27T00:20:45.181Z,0
2019-03-27T00:21:11.286Z,0
2019-03-27T00:21:37.392Z,0
2019-03-27T00:22:03.501Z,0
2019-03-27T00:22:29.609Z,0
2019-03-27T00:22:55.714Z,0
2019-03-27T00:23:21.829Z,0
2019-03-27T00:23:47.963Z,0
2019-03-27T00:24:14.104Z,0
2019-03-27T00:24:40.240Z,0
2019-03-27T00:25:06.353Z,0
2019-03-27T00:25:32.453Z,0
2019-03-27T00:25:58.596Z,0
2019-03-27T00:26:24.704Z,0
2019-03-27T00:26:50.808Z,0
2019-03-27T00:27:16.965Z,0
2019-03-27T00:27:43.075Z,0
2019-03-27T00:28:09.186Z,0
2019-03-27T00:28:35.298Z,0
2019-03-27T00:29:01.406Z,0
2019-03-27T00:29:27.513Z,0
2019-03-27T00:29:53.624Z,0
2019-03-27T00:30:19.723Z,0
2019-03-27T00:30:45.834Z,0
2019-03-27T00:31:12.124Z,0
2019-03-27T00:31:38.070Z,0
2019-03-27T00:32:04.184Z,0
2019-03-27T00:32:30.287Z,0
2019-03-27T00:32:56.392Z,0
2019-03-27T00:33:22.533Z,0
2019-03-27T00:33:48.642Z,0
2019-03-27T00:34:14.749Z,0
2019-03-27T00:34:40.885Z,0
2019-03-27T00:35:06.993Z,0
2019-03-27T00:35:33.094Z,0
2019-03-27T00:35:59.234Z,0
2019-03-27T00:36:25.344Z,0
2019-03-27T00:36:51.450Z,0
2019-03-27T00:37:17.554Z,0
2019-03-27T00:37:43.692Z,0
2019-03-27T00:38:09.803Z,0
2019-03-27T00:38:35.933Z,0
2019-03-27T00:39:02.045Z,0
2019-03-27T00:39:28.146Z,0
2019-03-27T00:39:54.252Z,0
2019-03-27T00:40:20.366Z,0
2019-03-27T00:40:46.473Z,0
2019-03-27T00:41:12.581Z,0
2019-03-27T00:41:38.683Z,0
2019-03-27T00:42:04.791Z,0
2019-03-27T00:42:30.899Z,0
2019-03-27T00:42:57.012Z,0
2019-03-27T00:43:23.185Z,0
2019-03-27T00:43:49.286Z,0
2019-03-27T00:44:15.398Z,0
2019-03-27T00:44:41.515Z,0
2019-03-27T00:45:07.609Z,0
2019-03-27T00:45:35.735Z,0
2019-03-27T00:46:01.837Z,0
2019-03-27T00:46:27.973Z,0
2019-03-27T00:46:54.122Z,0
2019-03-27T00:47:20.263Z,0
2019-03-27T00:47:46.369Z,0
2019-03-27T00:48:12.476Z,0
2019-03-27T00:48:38.585Z,0
2019-03-27T00:49:04.692Z,0
2019-03-27T00:49:30.799Z,0
2019-03-27T00:49:56.895Z,0
2019-03-27T00:50:23.004Z,0
2019-03-27T00:50:49.128Z,0
2019-03-27T00:51:15.231Z,0
2019-03-27T00:51:41.343Z,0
2019-03-27T00:52:07.458Z,0
2019-03-27T00:52:33.566Z,0
2019-03-27T00:52:59.673Z,0
2019-03-27T00:53:25.774Z,0
2019-03-27T00:53:51.883Z,0
2019-03-27T00:54:17.993Z,0
2019-03-27T00:54:44.106Z,0
2019-03-27T00:55:10.272Z,0
2019-03-27T00:55:36.406Z,0
2019-03-27T00:56:02.553Z,0
2019-03-27T00:56:28.624Z,0
2019-03-27T00:56:54.732Z,0
2019-03-27T00:57:20.843Z,0
2019-03-27T00:57:46.945Z,0
2019-03-27T00:58:13.054Z,0
2019-03-27T00:58:39.157Z,0
2019-03-27T00:59:05.259Z,0
2019-03-27T00:59:31.374Z,0
2019-03-27T00:59:57.479Z,0
2019-03-27T01:00:23.590Z,0
2019-03-27T01:00:49.699Z,0
2019-03-27T01:01:15.862Z,0
2019-03-27T01:01:41.999Z,0
2019-03-27T01:02:08.106Z,0
2019-03-27T01:02:34.212Z,0
2019-03-27T01:03:00.321Z,0
2019-03-27T01:03:26.432Z,0
2019-03-27T01:03:52.575Z,0
2019-03-27T01:04:18.711Z,0
2019-03-27T01:04:44.820Z,0
2019-03-27T01:05:10.927Z,0
2019-03-27T01:05:37.035Z,0
2019-03-27T01:06:03.152Z,0
2019-03-27T01:06:29.258Z,0
2019-03-27T01:06:56.332Z,0
2019-03-27T01:07:22.445Z,0
2019-03-27T01:07:48.543Z,0
2019-03-27T01:08:14.658Z,0
2019-03-27T01:08:40.761Z,0
2019-03-27T01:09:06.867Z,0
2019-03-27T01:09:32.974Z,0
2019-03-27T01:09:59.114Z,0
2019-03-27T01:10:25.222Z,0
2019-03-27T01:10:51.352Z,0
2019-03-27T01:11:17.462Z,0
2019-03-27T01:11:43.611Z,0
2019-03-27T01:12:09.718Z,0
2019-03-27T01:12:35.871Z,0
2019-03-27T01:13:01.971Z,0
2019-03-27T01:13:28.079Z,0
2019-03-27T01:13:54.182Z,0
2019-03-27T01:14:20.297Z,0
2019-03-27T01:14:46.397Z,0
2019-03-27T01:15:12.509Z,0
2019-03-27T01:15:40.595Z,0
2019-03-27T01:16:06.705Z,0
2019-03-27T01:16:32.813Z,0
2019-03-27T01:16:58.918Z,0
2019-03-27T01:17:25.021Z,0
2019-03-27T01:17:51.134Z,0
2019-03-27T01:18:17.271Z,0
2019-03-27T01:18:43.380Z,0
2019-03-27T01:19:09.490Z,0
2019-03-27T01:19:35.622Z,0
2019-03-27T01:20:01.741Z,0
2019-03-27T01:20:27.844Z,0
2019-03-27T01:20:53.953Z,0
2019-03-27T01:21:20.058Z,0
2019-03-27T01:21:46.163Z,0
2019-03-27T01:22:12.305Z,0
2019-03-27T01:22:38.417Z,0
2019-03-27T01:23:04.546Z,0
2019-03-27T01:23:30.651Z,0
2019-03-27T01:23:56.764Z,0
2019-03-27T01:24:22.901Z,0
2019-03-27T01:24:49.044Z,0
2019-03-27T01:25:15.142Z,0
2019-03-27T01:25:41.277Z,0
2019-03-27T01:26:07.416Z,0
2019-03-27T01:26:33.540Z,0
2019-03-27T01:26:59.647Z,0
2019-03-27T01:27:25.754Z,0
2019-03-27T01:27:51.861Z,0
2019-03-27T01:28:17.974Z,0
2019-03-27T01:28:44.079Z,0
2019-03-27T01:29:10.190Z,0
2019-03-27T01:29:36.331Z,0
2019-03-27T01:30:02.486Z,0
2019-03-27T01:30:28.622Z,0
2019-03-27T01:30:54.729Z,0
2019-03-27T01:31:20.842Z,0
2019-03-27T01:31:46.948Z,0
2019-03-27T01:32:13.046Z,0
2019-03-27T01:32:39.180Z,0
2019-03-27T01:33:05.292Z,0
2019-03-27T01:33:31.427Z,0
2019-03-27T01:33:57.590Z,0
2019-03-27T01:34:23.648Z,0
2019-03-27T01:34:49.759Z,0
2019-03-27T01:35:16.037Z,0
2019-03-27T01:35:42.133Z,0
2019-03-27T01:36:08.246Z,0
2019-03-27T01:36:34.353Z,0
2019-03-27T01:37:00.489Z,0
2019-03-27T01:37:26.607Z,0
2019-03-27T01:37:52.712Z,0
2019-03-27T01:38:18.820Z,0
2019-03-27T01:38:44.955Z,0
2019-03-27T01:39:11.036Z,0
2019-03-27T01:39:37.138Z,0
2019-03-27T01:40:03.275Z,0
2019-03-27T01:40:29.412Z,0
2019-03-27T01:40:55.525Z,0
2019-03-27T01:41:21.643Z,0
2019-03-27T01:41:47.746Z,0
2019-03-27T01:42:13.853Z,0
2019-03-27T01:42:39.961Z,0
2019-03-27T01:43:06.076Z,0
2019-03-27T01:43:32.180Z,0
2019-03-27T01:43:58.287Z,0
2019-03-27T01:44:24.400Z,0
2019-03-27T01:44:50.502Z,0
2019-03-27T01:45:16.612Z,0
2019-03-27T01:45:52.332Z,0
2019-03-27T01:46:09.835Z,0
2019-03-27T01:46:35.942Z,0
2019-03-27T01:47:02.085Z,0
2019-03-27T01:47:28.191Z,0
2019-03-27T01:47:54.308Z,0
2019-03-27T01:48:20.441Z,0
2019-03-27T01:48:46.553Z,0
2019-03-27T01:49:12.659Z,0
2019-03-27T01:49:38.772Z,0
2019-03-27T01:50:04.905Z,0
2019-03-27T01:50:31.010Z,0
2019-03-27T01:50:57.113Z,0
2019-03-27T01:51:23.214Z,0
2019-03-27T01:51:49.329Z,0
2019-03-27T01:52:16.434Z,0
2019-03-27T01:52:42.533Z,0
2019-03-27T01:53:08.637Z,0
2019-03-27T01:53:34.778Z,0
2019-03-27T01:54:00.904Z,0
2019-03-27T01:54:27.017Z,0
2019-03-27T01:54:53.149Z,0
2019-03-27T01:55:19.252Z,0
2019-03-27T01:55:45.360Z,0
2019-03-27T01:56:11.491Z,0
2019-03-27T01:56:37.599Z,0
2019-03-27T01:57:03.708Z,0
2019-03-27T01:57:29.816Z,0
2019-03-27T01:57:55.926Z,0
2019-03-27T01:58:22.029Z,0
2019-03-27T01:58:48.135Z,0
2019-03-27T01:59:14.241Z,0
2019-03-27T01:59:40.350Z,0
2019-03-27T02:00:06.465Z,0
2019-03-27T02:00:32.571Z,0
2019-03-27T02:00:58.675Z,0
2019-03-27T02:01:24.784Z,0
2019-03-27T02:01:50.899Z,0
2019-03-27T02:02:17.037Z,0
2019-03-27T02:02:43.139Z,0
2019-03-27T02:03:09.245Z,0
2019-03-27T02:03:35.356Z,0
2019-03-27T02:04:01.456Z,0
2019-03-27T02:04:27.565Z,0
2019-03-27T02:04:53.668Z,0
2019-03-27T02:05:19.775Z,0
2019-03-27T02:05:45.904Z,0
2019-03-27T02:06:12.066Z,0
2019-03-27T02:06:38.167Z,0
2019-03-27T02:07:04.279Z,0
2019-03-27T02:07:30.413Z,0
2019-03-27T02:07:56.551Z,0
2019-03-27T02:08:22.656Z,0
2019-03-27T02:08:48.761Z,0
2019-03-27T02:09:14.898Z,0
2019-03-27T02:09:40.998Z,0
2019-03-27T02:10:07.101Z,0
2019-03-27T02:10:33.213Z,0
2019-03-27T02:10:59.316Z,0
2019-03-27T02:11:25.424Z,0
2019-03-27T02:11:51.531Z,0
2019-03-27T02:12:17.670Z,0
2019-03-27T02:12:43.780Z,0
2019-03-27T02:13:09.895Z,0
2019-03-27T02:13:36.000Z,0
2019-03-27T02:14:02.117Z,0
2019-03-27T02:14:28.227Z,0
2019-03-27T02:14:54.324Z,0
2019-03-27T02:15:20.459Z,0
2019-03-27T02:15:46.603Z,0
2019-03-27T02:16:13.721Z,0
2019-03-27T02:16:39.827Z,0
2019-03-27T02:17:05.999Z,0
2019-03-27T02:17:32.106Z,0
2019-03-27T02:17:58.242Z,0
2019-03-27T02:18:24.367Z,0
2019-03-27T02:18:50.473Z,0
2019-03-27T02:19:16.584Z,0
2019-03-27T02:19:42.691Z,0
2019-03-27T02:20:08.829Z,0
2019-03-27T02:20:34.930Z,0
2019-03-27T02:21:01.035Z,0
2019-03-27T02:21:27.172Z,0
2019-03-27T02:21:53.278Z,0
2019-03-27T02:22:19.412Z,0
2019-03-27T02:22:45.522Z,0
2019-03-27T02:23:11.629Z,0
2019-03-27T02:23:37.740Z,0
2019-03-27T02:24:03.881Z,0
2019-03-27T02:24:30.018Z,0
2019-03-27T02:24:56.209Z,0
2019-03-27T02:25:22.322Z,0
2019-03-27T02:25:48.425Z,0
2019-03-27T02:26:14.557Z,0
2019-03-27T02:26:40.668Z,0
2019-03-27T02:27:06.774Z,0
2019-03-27T02:27:32.912Z,0
2019-03-27T02:27:59.012Z,0
2019-03-27T02:28:25.119Z,0
2019-03-27T02:28:51.230Z,0
2019-03-27T02:29:17.335Z,0
2019-03-27T02:29:43.446Z,0
2019-03-27T02:30:09.581Z,0
2019-03-27T02:30:35.736Z,0
2019-03-27T02:31:01.918Z,0
2019-03-27T02:31:28.071Z,0
2019-03-27T02:31:54.178Z,0
2019-03-27T02:32:20.970Z,0
2019-03-27T02:32:47.226Z,0
2019-03-27T02:33:13.365Z,0
2019-03-27T02:33:39.500Z,0
2019-03-27T02:34:05.669Z,0
2019-03-27T02:34:31.766Z,0
2019-03-27T02:34:57.940Z,0
2019-03-27T02:35:24.170Z,0
2019-03-27T02:35:50.289Z,0
2019-03-27T02:36:16.399Z,0
2019-03-27T02:36:42.567Z,0
2019-03-27T02:37:08.673Z,0
2019-03-27T02:37:34.842Z,0
2019-03-27T02:38:00.957Z,0
2019-03-27T02:38:27.144Z,0
2019-03-27T02:38:53.281Z,0
2019-03-27T02:39:19.383Z,0
2019-03-27T02:39:45.488Z,0
2019-03-27T02:40:11.653Z,0
2019-03-27T02:40:37.816Z,0
2019-03-27T02:41:03.949Z,0
2019-03-27T02:41:30.082Z,0
2019-03-27T02:41:56.245Z,0
2019-03-27T02:42:22.352Z,0
2019-03-27T02:42:48.464Z,0
2019-03-27T02:43:14.630Z,0
2019-03-27T02:43:40.739Z,0
2019-03-27T02:44:06.914Z,0
2019-03-27T02:44:33.023Z,0
2019-03-27T02:44:59.141Z,0
2019-03-27T02:45:25.266Z,0
2019-03-27T02:45:51.403Z,0
2019-03-27T02:46:24.174Z,0
2019-03-27T02:46:44.743Z,0
2019-03-27T02:47:10.911Z,0
2019-03-27T02:47:37.039Z,0
2019-03-27T02:48:03.148Z,0
2019-03-27T02:48:29.884Z,0
2019-03-27T02:48:55.988Z,0
2019-03-27T02:49:22.152Z,0
2019-03-27T02:49:48.272Z,0
2019-03-27T02:50:14.407Z,0
2019-03-27T02:50:40.626Z,0
2019-03-27T02:51:06.770Z,0
2019-03-27T02:51:32.935Z,0
2019-03-27T02:51:59.069Z,0
2019-03-27T02:52:25.179Z,0
2019-03-27T02:52:51.283Z,0
2019-03-27T02:53:17.388Z,0
2019-03-27T02:53:43.498Z,0
2019-03-27T02:54:09.670Z,0
2019-03-27T02:54:35.799Z,0
2019-03-27T02:55:01.903Z,0
2019-03-27T02:55:28.036Z,0
2019-03-27T02:55:54.141Z,0
2019-03-27T02:56:20.366Z,0
2019-03-27T02:56:46.429Z,0
2019-03-27T02:57:12.564Z,0
2019-03-27T02:57:38.705Z,0
2019-03-27T02:58:04.856Z,0
2019-03-27T02:58:30.991Z,0
2019-03-27T02:58:57.115Z,0
2019-03-27T02:59:23.300Z,0
2019-03-27T02:59:49.431Z,0
2019-03-27T03:00:15.565Z,0
2019-03-27T03:00:41.710Z,0
2019-03-27T03:01:07.842Z,0
2019-03-27T03:01:33.971Z,0
2019-03-27T03:02:00.107Z,0
2019-03-27T03:02:26.269Z,0
2019-03-27T03:02:52.401Z,0
2019-03-27T03:03:18.535Z,0
2019-03-27T03:03:44.639Z,0
2019-03-27T03:04:10.895Z,0
2019-03-27T03:04:37.025Z,0
2019-03-27T03:05:03.166Z,0
2019-03-27T03:05:29.264Z,0
2019-03-27T03:05:55.375Z,0
2019-03-27T03:06:21.562Z,0
2019-03-27T03:06:47.691Z,0
2019-03-27T03:07:13.826Z,0
2019-03-27T03:07:40.025Z,0
2019-03-27T03:08:06.198Z,0
2019-03-27T03:08:32.380Z,0
2019-03-27T03:08:58.515Z,0
2019-03-27T03:09:24.748Z,0
2019-03-27T03:09:50.884Z,0
2019-03-27T03:10:17.118Z,0
2019-03-27T03:10:45.405Z,0
2019-03-27T03:11:10.399Z,0
2019-03-27T03:11:36.543Z,0
2019-03-27T03:12:02.715Z,0
2019-03-27T03:12:28.905Z,0
2019-03-27T03:12:55.077Z,0
2019-03-27T03:13:21.211Z,0
2019-03-27T03:13:47.375Z,0
2019-03-27T03:14:13.518Z,0
2019-03-27T03:14:39.650Z,0
2019-03-27T03:15:05.844Z,0
2019-03-27T03:15:31.984Z,0
2019-03-27T03:15:58.086Z,0
2019-03-27T03:16:40.831Z,0
2019-03-27T03:16:53.317Z,0
2019-03-27T03:17:19.436Z,0
2019-03-27T03:17:45.568Z,0
2019-03-27T03:18:11.675Z,0
2019-03-27T03:18:37.808Z,0
2019-03-27T03:19:03.944Z,0
2019-03-27T03:19:30.116Z,0
2019-03-27T03:19:56.277Z,0
2019-03-27T03:20:22.440Z,0
2019-03-27T03:20:48.545Z,0
2019-03-27T03:21:14.684Z,0
2019-03-27T03:21:40.791Z,0
2019-03-27T03:22:06.931Z,0
2019-03-27T03:22:33.094Z,0
2019-03-27T03:22:59.202Z,0
2019-03-27T03:23:25.337Z,0
2019-03-27T03:23:51.445Z,0
2019-03-27T03:24:17.574Z,0
2019-03-27T03:24:43.735Z,0
2019-03-27T03:25:09.905Z,0
2019-03-27T03:25:36.009Z,0
2019-03-27T03:26:02.145Z,0
2019-03-27T03:26:28.251Z,0
2019-03-27T03:26:55.383Z,0
2019-03-27T03:27:21.522Z,0
2019-03-27T03:27:47.709Z,0
2019-03-27T03:28:13.845Z,0
2019-03-27T03:28:39.983Z,0
2019-03-27T03:29:06.126Z,0
2019-03-27T03:29:32.280Z,0
2019-03-27T03:29:58.416Z,0
2019-03-27T03:30:24.590Z,0
2019-03-27T03:30:50.742Z,0
2019-03-27T03:31:16.866Z,0
2019-03-27T03:31:43.033Z,0
2019-03-27T03:32:09.165Z,0
2019-03-27T03:32:35.277Z,0
2019-03-27T03:33:01.544Z,0
2019-03-27T03:33:27.682Z,0
2019-03-27T03:33:53.812Z,0
2019-03-27T03:34:19.959Z,0
2019-03-27T03:34:46.146Z,0
2019-03-27T03:35:12.293Z,0
2019-03-27T03:35:38.481Z,0
2019-03-27T03:36:04.620Z,0
2019-03-27T03:36:30.723Z,0
2019-03-27T03:36:56.838Z,0
2019-03-27T03:37:22.933Z,0
2019-03-27T03:37:49.038Z,0
2019-03-27T03:38:15.205Z,0
2019-03-27T03:38:41.408Z,0
2019-03-27T03:39:07.545Z,0
2019-03-27T03:39:33.712Z,0
2019-03-27T03:39:59.863Z,0
2019-03-27T03:40:26.004Z,0
2019-03-27T03:40:52.170Z,0
2019-03-27T03:41:18.298Z,0
2019-03-27T03:41:44.486Z,0
2019-03-27T03:42:10.594Z,0
2019-03-27T03:42:36.724Z,0
2019-03-27T03:43:02.932Z,0
2019-03-27T03:43:29.038Z,0
2019-03-27T03:43:55.146Z,0
2019-03-27T03:44:21.316Z,0
2019-03-27T03:44:47.435Z,0
2019-03-27T03:45:13.547Z,0
2019-03-27T03:45:39.710Z,0
2019-03-27T03:46:05.910Z,0
2019-03-27T03:46:32.044Z,0
2019-03-27T03:47:00.705Z,0
2019-03-27T03:47:26.871Z,0
2019-03-27T03:47:52.981Z,0
2019-03-27T03:48:19.117Z,0
2019-03-27T03:48:45.308Z,0
2019-03-27T03:49:11.502Z,0
2019-03-27T03:49:37.608Z,0
2019-03-27T03:50:03.723Z,0
2019-03-27T03:50:29.890Z,0
2019-03-27T03:50:56.029Z,0
2019-03-27T03:51:22.220Z,0
2019-03-27T03:51:48.370Z,0
2019-03-27T03:52:14.501Z,0
2019-03-27T03:52:40.610Z,0
2019-03-27T03:53:07.124Z,0
2019-03-27T03:53:33.233Z,0
2019-03-27T03:53:59.401Z,0
2019-03-27T03:54:25.532Z,0
2019-03-27T03:54:51.670Z,0
2019-03-27T03:55:17.828Z,0
2019-03-27T03:55:43.996Z,0
2019-03-27T03:56:10.135Z,0
2019-03-27T03:56:36.268Z,0
2019-03-27T03:57:02.396Z,0
2019-03-27T03:57:28.503Z,0
2019-03-27T03:57:54.653Z,0
2019-03-27T03:58:20.817Z,0
2019-03-27T03:58:47.350Z,0
2019-03-27T03:59:14.131Z,0
2019-03-27T03:59:40.191Z,0
2019-03-27T04:00:06.510Z,0
2019-03-27T04:00:32.695Z,0
2019-03-27T04:00:58.836Z,0
2019-03-27T04:01:25.009Z,0
2019-03-27T04:01:51.406Z,0
2019-03-27T04:02:17.515Z,0
2019-03-27T04:02:43.707Z,0
2019-03-27T04:03:10.137Z,0
2019-03-27T04:03:36.289Z,0
2019-03-27T04:04:02.908Z,0
2019-03-27T04:04:32.145Z,0
2019-03-27T04:04:58.567Z,0
2019-03-27T04:05:25.103Z,0
2019-03-27T04:05:51.638Z,0
2019-03-27T04:06:17.860Z,0
2019-03-27T04:06:44.144Z,0
2019-03-27T04:07:10.743Z,0
2019-03-27T04:07:36.955Z,0
2019-03-27T04:08:03.307Z,0
2019-03-27T04:08:29.759Z,0
2019-03-27T04:08:56.293Z,0
2019-03-27T04:09:22.688Z,0
2019-03-27T04:09:48.814Z,0
2019-03-27T04:10:15.217Z,0
2019-03-27T04:10:41.508Z,0
2019-03-27T04:11:08.097Z,0
2019-03-27T04:11:34.480Z,0
2019-03-27T04:12:01.207Z,0
2019-03-27T04:12:27.325Z,0
2019-03-27T04:12:53.941Z,0
2019-03-27T04:13:20.030Z,0
2019-03-27T04:13:46.128Z,0
2019-03-27T04:14:12.586Z,0
2019-03-27T04:14:39.298Z,0
2019-03-27T04:15:05.634Z,0
2019-03-27T04:15:31.883Z,0
2019-03-27T04:15:58.171Z,0
2019-03-27T04:16:24.273Z,0
2019-03-27T04:16:50.877Z,0
2019-03-27T04:17:20.209Z,0
2019-03-27T04:17:46.536Z,0
2019-03-27T04:18:12.734Z,0
2019-03-27T04:18:38.927Z,0
2019-03-27T04:19:05.094Z,0
2019-03-27T04:19:31.934Z,0
2019-03-27T04:19:58.283Z,0
2019-03-27T04:20:24.743Z,0
2019-03-27T04:20:51.456Z,0
2019-03-27T04:21:17.763Z,0
2019-03-27T04:21:44.950Z,0
2019-03-27T04:22:11.107Z,0
2019-03-27T04:22:37.411Z,0
2019-03-27T04:23:04.341Z,0
2019-03-27T04:23:30.812Z,0
2019-03-27T04:23:57.022Z,0
2019-03-27T04:24:23.363Z,0
2019-03-27T04:24:49.504Z,0
2019-03-27T04:25:16.448Z,0
2019-03-27T04:26:07.614Z,0
2019-03-27T04:26:14.841Z,0
2019-03-27T04:26:41.895Z,0
2019-03-27T04:27:08.033Z,0
2019-03-27T04:27:34.230Z,0
2019-03-27T04:28:00.375Z,0
2019-03-27T04:28:26.575Z,0
2019-03-27T04:28:52.663Z,0
2019-03-27T04:29:18.796Z,0
2019-03-27T04:29:44.921Z,0
2019-03-27T04:30:11.032Z,0
2019-03-27T04:30:37.129Z,0
2019-03-27T04:31:03.275Z,0
2019-03-27T04:31:29.445Z,0
2019-03-27T04:31:55.579Z,0
2019-03-27T04:32:21.701Z,0
2019-03-27T04:32:47.887Z,0
2019-03-27T04:33:14.013Z,0
2019-03-27T04:33:40.188Z,0
2019-03-27T04:34:06.333Z,0
2019-03-27T04:34:32.468Z,0
2019-03-27T04:34:59.567Z,0
2019-03-27T04:35:25.734Z,0
2019-03-27T04:35:51.898Z,0
2019-03-27T04:36:18.040Z,0
2019-03-27T04:36:44.178Z,0
2019-03-27T04:37:10.315Z,0
2019-03-27T04:37:36.449Z,0
2019-03-27T04:38:02.644Z,0
2019-03-27T04:38:28.747Z,0
2019-03-27T04:38:54.875Z,0
2019-03-27T04:39:21.011Z,0
2019-03-27T04:39:47.181Z,0
2019-03-27T04:40:13.293Z,0
2019-03-27T04:40:39.422Z,0
2019-03-27T04:41:05.534Z,0
2019-03-27T04:41:31.670Z,0
2019-03-27T04:41:57.830Z,0
2019-03-27T04:42:23.967Z,0
2019-03-27T04:42:50.097Z,0
2019-03-27T04:43:16.235Z,0
2019-03-27T04:43:42.342Z,0
2019-03-27T04:44:08.448Z,0
2019-03-27T04:44:34.587Z,0
2019-03-27T04:45:00.721Z,4
2019-03-27T04:45:26.856Z,4
2019-03-27T04:45:52.954Z,4
2019-03-27T04:46:19.093Z,0
2019-03-27T04:46:45.193Z,0
2019-03-27T04:47:11.322Z,0
2019-03-27T04:47:38.465Z,0
2019-03-27T04:48:04.569Z,4
2019-03-27T04:48:30.713Z,4
2019-03-27T04:48:56.872Z,4
2019-03-27T04:49:23.523Z,0
2019-03-27T04:49:49.627Z,4
2019-03-27T04:50:15.780Z,4
2019-03-27T04:50:41.910Z,4
2019-03-27T04:51:08.023Z,4
2019-03-27T04:51:34.166Z,4
2019-03-27T04:52:00.276Z,4
2019-03-27T04:52:26.383Z,4
2019-03-27T04:52:52.496Z,8
2019-03-27T04:53:18.600Z,8
2019-03-27T04:53:44.708Z,8
2019-03-27T04:54:10.813Z,8
2019-03-27T04:54:36.942Z,4
2019-03-27T04:55:03.052Z,8
2019-03-27T04:55:29.152Z,8
2019-03-27T04:55:55.262Z,4
2019-03-27T04:56:21.366Z,8
2019-03-27T04:56:47.474Z,8
2019-03-27T04:57:13.578Z,8
2019-03-27T04:57:39.682Z,8
2019-03-27T04:58:05.821Z,12
2019-03-27T04:58:31.934Z,8
2019-03-27T04:58:58.039Z,12
2019-03-27T04:59:24.159Z,12
2019-03-27T04:59:50.265Z,12
2019-03-27T05:00:16.432Z,16
2019-03-27T05:00:42.572Z,16
2019-03-27T05:01:08.681Z,12
2019-03-27T05:01:34.836Z,16
2019-03-27T05:02:00.942Z,16
2019-03-27T05:02:27.662Z,16
2019-03-27T05:02:53.769Z,16
2019-03-27T05:03:19.966Z,20
2019-03-27T05:03:46.017Z,20
2019-03-27T05:04:12.129Z,24
2019-03-27T05:04:38.238Z,28
2019-03-27T05:05:04.345Z,32
2019-03-27T05:05:30.478Z,32
2019-03-27T05:05:56.619Z,36
2019-03-27T05:06:22.748Z,40
2019-03-27T05:06:48.861Z,44
2019-03-27T05:07:14.983Z,48
2019-03-27T05:07:41.095Z,48
2019-03-27T05:08:07.203Z,52
2019-03-27T05:08:33.335Z,56
2019-03-27T05:08:59.453Z,56
2019-03-27T05:09:25.619Z,56
2019-03-27T05:09:51.658Z,60
2019-03-27T05:10:17.766Z,68
2019-03-27T05:10:43.876Z,72
2019-03-27T05:11:09.982Z,76
2019-03-27T05:11:36.086Z,80
2019-03-27T05:12:02.198Z,80
2019-03-27T05:12:28.337Z,88
2019-03-27T05:12:54.698Z,92
2019-03-27T05:13:20.811Z,96
2019-03-27T05:13:46.921Z,100
2019-03-27T05:14:13.023Z,104
2019-03-27T05:14:39.128Z,104
2019-03-27T05:15:05.229Z,112
2019-03-27T05:15:31.369Z,112
2019-03-27T05:15:57.534Z,116
2019-03-27T05:16:23.647Z,116
2019-03-27T05:16:49.759Z,124
2019-03-27T05:17:15.894Z,132
2019-03-27T05:17:46.035Z,144
2019-03-27T05:18:10.142Z,148
2019-03-27T05:18:36.253Z,152
2019-03-27T05:19:02.382Z,160
2019-03-27T05:19:28.485Z,172
2019-03-27T05:19:54.618Z,184
2019-03-27T05:20:20.722Z,196
2019-03-27T05:20:47.819Z,216
2019-03-27T05:21:13.936Z,236
2019-03-27T05:21:40.076Z,256
2019-03-27T05:22:06.212Z,268
2019-03-27T05:22:32.319Z,296
2019-03-27T05:22:58.479Z,328
2019-03-27T05:23:24.590Z,348
2019-03-27T05:23:50.723Z,364
2019-03-27T05:24:16.836Z,376
2019-03-27T05:24:42.954Z,380
2019-03-27T05:25:09.080Z,388
2019-03-27T05:25:35.182Z,396
2019-03-27T05:26:01.322Z,388
2019-03-27T05:26:27.437Z,392
2019-03-27T05:26:53.543Z,400
2019-03-27T05:27:19.653Z,408
2019-03-27T05:27:46.751Z,428
2019-03-27T05:28:12.865Z,444
2019-03-27T05:28:38.998Z,444
2019-03-27T05:29:05.105Z,448
2019-03-27T05:29:31.243Z,452
2019-03-27T05:29:57.382Z,452
2019-03-27T05:30:23.492Z,468
2019-03-27T05:30:49.635Z,476
2019-03-27T05:31:15.763Z,476
2019-03-27T05:31:41.867Z,480
2019-03-27T05:32:07.978Z,476
2019-03-27T05:32:34.090Z,476
2019-03-27T05:33:00.200Z,484
2019-03-27T05:33:26.305Z,488
2019-03-27T05:33:53.402Z,492
2019-03-27T05:34:19.521Z,492
2019-03-27T05:34:45.682Z,496
2019-03-27T05:35:11.824Z,492
2019-03-27T05:35:37.970Z,488
2019-03-27T05:36:04.075Z,500
2019-03-27T05:36:30.186Z,508
2019-03-27T05:36:56.294Z,512
2019-03-27T05:37:22.430Z,508
2019-03-27T05:37:48.534Z,508
2019-03-27T05:38:14.705Z,516
2019-03-27T05:38:40.811Z,528
2019-03-27T05:39:06.923Z,544
2019-03-27T05:39:33.058Z,564
2019-03-27T05:39:59.169Z,584
2019-03-27T05:40:25.294Z,608
2019-03-27T05:40:51.405Z,648
2019-03-27T05:41:17.541Z,684
2019-03-27T05:41:43.661Z,716
2019-03-27T05:42:09.774Z,764
2019-03-27T05:42:35.879Z,820
2019-03-27T05:43:04.961Z,892
2019-03-27T05:43:31.063Z,908
2019-03-27T05:43:57.205Z,932
2019-03-27T05:44:23.305Z,952
2019-03-27T05:44:49.411Z,968
2019-03-27T05:45:15.525Z,976
2019-03-27T05:45:41.667Z,984
2019-03-27T05:46:07.781Z,1016
2019-03-27T05:46:33.915Z,1036
2019-03-27T05:47:00.063Z,1060
2019-03-27T05:47:26.163Z,1080
2019-03-27T05:47:59.172Z,1096
2019-03-27T05:48:21.075Z,1116
2019-03-27T05:48:47.184Z,1144
2019-03-27T05:49:13.282Z,1152
2019-03-27T05:49:39.392Z,1172
2019-03-27T05:50:05.647Z,1184
2019-03-27T05:50:31.756Z,1180
2019-03-27T05:50:57.857Z,1152
2019-03-27T05:51:23.967Z,1148
2019-03-27T05:51:50.065Z,1152
2019-03-27T05:52:16.178Z,1140
2019-03-27T05:52:42.310Z,1128
2019-03-27T05:53:08.459Z,1104
2019-03-27T05:53:34.527Z,1064
2019-03-27T05:54:00.637Z,1036
2019-03-27T05:54:26.744Z,1048
2019-03-27T05:54:52.850Z,1068
2019-03-27T05:55:18.992Z,1088
2019-03-27T05:55:46.083Z,1132
2019-03-27T05:56:12.268Z,1160
2019-03-27T05:56:38.324Z,1176
2019-03-27T05:57:04.439Z,1168
2019-03-27T05:57:30.545Z,1144
2019-03-27T05:57:56.667Z,1128
2019-03-27T05:58:22.775Z,1128
2019-03-27T05:58:48.903Z,1128
2019-03-27T05:59:15.044Z,1128
2019-03-27T05:59:41.153Z,1144
2019-03-27T06:00:07.288Z,1168
2019-03-27T06:00:33.693Z,1184
2019-03-27T06:00:59.809Z,1196
2019-03-27T06:01:25.913Z,1208
2019-03-27T06:01:52.053Z,1224
2019-03-27T06:02:18.158Z,1236
2019-03-27T06:02:44.298Z,1248
2019-03-27T06:03:10.436Z,1280
2019-03-27T06:03:36.544Z,1332
2019-03-27T06:04:02.721Z,1380
2019-03-27T06:04:28.836Z,1448
2019-03-27T06:04:54.971Z,1528
2019-03-27T06:05:21.210Z,1576
2019-03-27T06:05:47.373Z,1564
2019-03-27T06:06:13.482Z,1572
2019-03-27T06:06:39.588Z,1616
2019-03-27T06:07:05.719Z,1672
2019-03-27T06:07:31.849Z,1724
2019-03-27T06:07:57.975Z,1792
2019-03-27T06:08:24.143Z,1892
2019-03-27T06:08:50.275Z,1948
2019-03-27T06:09:16.384Z,1988
2019-03-27T06:09:42.489Z,2020
2019-03-27T06:10:08.595Z,2080
2019-03-27T06:10:34.742Z,2084
2019-03-27T06:11:00.869Z,2036
2019-03-27T06:11:26.974Z,2032
2019-03-27T06:11:53.108Z,2060
2019-03-27T06:12:19.218Z,2112
2019-03-27T06:12:45.321Z,2164
2019-03-27T06:13:11.448Z,2232
2019-03-27T06:13:37.582Z,2372
2019-03-27T06:14:03.689Z,2488
2019-03-27T06:14:29.815Z,2664
2019-03-27T06:14:55.926Z,2712
2019-03-27T06:15:22.032Z,2712
2019-03-27T06:15:49.130Z,2860
2019-03-27T06:16:15.238Z,3068
2019-03-27T06:16:41.345Z,3104
2019-03-27T06:17:07.479Z,3120
2019-03-27T06:17:33.621Z,3076
2019-03-27T06:18:12.137Z,3180
2019-03-27T06:18:27.865Z,3344
2019-03-27T06:18:53.974Z,3320
2019-03-27T06:19:20.085Z,3264
2019-03-27T06:19:46.196Z,3192
2019-03-27T06:20:12.304Z,3172
2019-03-27T06:20:38.432Z,3240